Time;durP1;ratioP1;P1;durP2;ratioP2;P2;SDS_P1;SDS_P2;PMS_P1;PMS_P2;Temp;Humidity;BMP_temperature;BMP_pressure;BME280_temperature;BME280_humidity;BME280_pressure;Samples;Min_cycle;Max_cycle;Signal;HPM_P1;HPM_P2
2022/09/23 00:00:40;;;;;;;4.93;3.47;;;;;;;-140.72;100.00;52713.50;5013593;28;20034;-66
2022/09/23 00:03:06;;;;;;;5.90;4.13;;;;;;;-140.72;100.00;52691.19;5019441;28;20295;-66
2022/09/23 00:05:31;;;;;;;4.53;2.83;;;;;;;-140.72;100.00;52689.16;5016934;28;20023;-67
2022/09/23 00:07:58;;;;;;;4.65;3.28;;;;;;;-140.72;100.00;52697.28;5015079;28;20109;-66
2022/09/23 00:10:25;;;;;;;5.03;3.45;;;;;;;-140.72;100.00;52705.38;5010547;28;20033;-66
2022/09/23 00:12:51;;;;;;;5.00;4.05;;;;;;;-140.72;100.00;52679.00;5013682;28;20355;-66
2022/09/23 00:15:18;;;;;;;4.65;3.20;;;;;;;-140.72;100.00;52705.38;5013451;28;20361;-66
2022/09/23 00:17:44;;;;;;;5.43;3.60;;;;;;;-140.72;100.00;52713.50;5023116;28;20053;-66
2022/09/23 00:20:12;;;;;;;4.85;2.88;;;;;;;-140.72;100.00;52727.72;5016882;28;20018;-69
2022/09/23 00:22:38;;;;;;;4.55;3.28;;;;;;;-140.72;100.00;52683.06;5012038;28;20462;-66
2022/09/23 00:25:05;;;;;;;4.88;3.22;;;;;;;-140.72;100.00;52709.44;5013391;28;20056;-66
2022/09/23 00:27:32;;;;;;;4.40;2.85;;;;;;;-140.72;100.00;52676.97;5022226;28;20096;-66
2022/09/23 00:29:58;;;;;;;5.20;4.05;;;;;;;-140.72;100.00;52703.34;5023719;28;20050;-66
2022/09/23 00:32:24;;;;;;;6.82;3.67;;;;;;;-140.72;100.00;52691.19;5015646;28;20457;-67
2022/09/23 00:34:50;;;;;;;5.13;3.80;;;;;;;-140.72;100.00;52715.53;4978402;28;1113612;-66
2022/09/23 00:37:15;;;;;;;5.53;4.38;;;;;;;-140.72;100.00;52711.47;5015195;28;20079;-66
2022/09/23 00:39:41;;;;;;;6.50;3.85;;;;;;;-140.72;100.00;52707.41;5030474;28;20109;-66
2022/09/23 00:42:15;;;;;;;13.35;4.10;;;;;;;-140.72;100.00;52707.41;5024725;28;20034;-66
2022/09/23 00:44:52;;;;;;;4.53;3.60;;;;;;;-140.72;100.00;52735.81;5030915;28;20468;-66
2022/09/23 00:47:28;;;;;;;5.30;3.95;;;;;;;-140.72;100.00;52693.22;5009260;28;20026;-66
2022/09/23 00:50:07;;;;;;;7.95;4.10;;;;;;;-140.72;100.00;52743.94;5019812;28;20057;-66
2022/09/23 00:52:34;;;;;;;5.50;3.90;;;;;;;-140.72;100.00;52739.88;5005733;28;20026;-66
2022/09/23 00:55:04;;;;;;;5.88;3.53;;;;;;;-140.72;100.00;52727.72;5028714;28;20030;-66
2022/09/23 00:57:30;;;;;;;5.05;3.75;;;;;;;-140.72;100.00;52727.72;5008962;28;20038;-66
2022/09/23 00:59:56;;;;;;;4.05;3.25;;;;;;;-140.72;100.00;52719.59;5010342;28;20034;-66
2022/09/23 01:02:22;;;;;;;6.43;4.07;;;;;;;-140.72;100.00;52737.84;5023775;28;20037;-66
2022/09/23 01:04:50;;;;;;;5.45;3.88;;;;;;;-140.72;100.00;52723.66;5018186;28;20026;-66
2022/09/23 01:07:16;;;;;;;5.22;3.90;;;;;;;-140.72;100.00;52739.88;5005424;28;20070;-66
2022/09/23 01:09:42;;;;;;;5.00;3.70;;;;;;;-140.72;100.00;52739.88;5023767;28;20522;-66
2022/09/23 01:12:41;;;;;;;11.60;4.18;;;;;;;-140.72;100.00;52723.66;5010452;28;20023;-66
2022/09/23 01:15:32;;;;;;;7.18;4.55;;;;;;;-140.72;100.00;52693.22;5018600;28;20030;-65
2022/09/23 01:18:26;;;;;;;5.03;3.65;;;;;;;-140.72;100.00;52668.84;5013379;28;20492;-67
2022/09/23 01:20:54;;;;;;;5.45;3.53;;;;;;;-140.72;100.00;52699.31;5023783;28;20022;-66
2022/09/23 01:23:53;;;;;;;6.55;3.83;;;;;;;-140.72;100.00;52685.09;5025055;28;20030;-66
2022/09/23 01:26:30;;;;;;;7.53;4.60;;;;;;;-140.72;100.00;52733.78;5022989;28;20036;-66
2022/09/23 01:29:32;;;;;;;4.25;3.20;;;;;;;-140.72;100.00;52679.00;5037543;28;20228;-66
2022/09/23 01:32:30;;;;;;;4.70;3.80;;;;;;;-140.72;100.00;52711.47;5020308;28;20034;-66
2022/09/23 01:35:15;;;;;;;6.47;4.35;;;;;;;-140.72;100.00;52752.06;5017120;28;20058;-67
2022/09/23 01:38:13;;;;;;;6.40;4.07;;;;;;;-140.72;100.00;52697.28;5023929;28;20156;-68
2022/09/23 01:41:14;;;;;;;6.30;4.28;;;;;;;-140.72;100.00;52703.34;5025967;28;20030;-67
2022/09/23 01:43:58;;;;;;;5.75;3.67;;;;;;;-140.72;100.00;52745.97;5035257;28;20018;-67
2022/09/23 01:46:36;;;;;;;4.78;3.15;;;;;;;-140.72;100.00;52743.94;5009261;28;20026;-66
2022/09/23 01:49:16;;;;;;;4.40;3.95;;;;;;;-140.72;100.00;52707.41;5026298;28;20116;-66
2022/09/23 01:51:47;;;;;;;6.10;4.68;;;;;;;-140.72;100.00;52725.69;5024788;28;20041;-66
2022/09/23 01:54:29;;;;;;;5.35;4.15;;;;;;;-140.72;100.00;52739.88;5031483;28;20426;-66
2022/09/23 01:57:13;;;;;;;7.07;4.85;;;;;;;-140.72;100.00;52741.91;5021808;28;20022;-66
2022/09/23 01:59:46;;;;;;;5.47;4.25;;;;;;;-140.72;100.00;52737.84;5024740;28;20080;-66
2022/09/23 02:02:20;;;;;;;6.60;4.32;;;;;;;-140.72;100.00;52705.38;5035166;28;20025;-66
2022/09/23 02:04:53;;;;;;;4.65;3.55;;;;;;;-140.72;100.00;52748.00;5032931;28;20030;-66
2022/09/23 02:07:29;;;;;;;5.30;4.28;;;;;;;-140.72;100.00;52699.31;5016165;28;20109;-66
2022/09/23 02:10:04;;;;;;;6.57;4.38;;;;;;;-140.72;100.00;52731.75;5033802;28;20048;-66
2022/09/23 02:12:34;;;;;;;8.20;3.60;;;;;;;-140.72;100.00;52743.94;5038968;28;20052;-66
2022/09/23 02:15:18;;;;;;;5.57;3.78;;;;;;;-140.72;100.00;52756.13;5030143;28;20044;-66
2022/09/23 02:17:58;;;;;;;6.32;4.07;;;;;;;-140.72;100.00;52715.53;5014980;28;20037;-66
2022/09/23 02:20:29;;;;;;;5.00;3.67;;;;;;;-140.72;100.00;52670.88;5017136;28;20026;-66
2022/09/23 02:23:11;;;;;;;6.10;3.83;;;;;;;-140.72;100.00;52737.84;5030610;28;20051;-66
2022/09/23 02:25:43;;;;;;;5.25;3.90;;;;;;;-140.72;100.00;52721.63;5028692;28;20025;-66
2022/09/23 02:28:15;;;;;;;6.53;4.25;;;;;;;-140.72;100.00;52739.88;5035427;28;20029;-66
2022/09/23 02:30:49;;;;;;;5.35;3.38;;;;;;;-140.72;100.00;52721.63;5029448;28;20125;-66
2022/09/23 02:33:34;;;;;;;5.22;3.85;;;;;;;-140.72;100.00;52739.88;5127053;23;20061;-69
2022/09/23 02:36:04;;;;;;;5.07;3.40;;;;;;;-140.72;100.00;52707.41;4986212;28;20038;-69
2022/09/23 02:38:36;;;;;;;4.85;3.75;;;;;;;-140.72;100.00;52721.63;4988465;28;20034;-69
2022/09/23 02:41:13;;;;;;;4.80;3.97;;;;;;;-140.72;100.00;52699.31;4977073;28;20474;-68
2022/09/23 02:43:49;;;;;;;5.20;3.75;;;;;;;-140.72;100.00;52717.56;4972190;28;20035;-69
2022/09/23 02:46:15;;;;;;;5.47;3.88;;;;;;;-140.72;100.00;52693.22;4984493;28;20047;-70
2022/09/23 02:48:47;;;;;;;5.07;3.13;;;;;;;-140.72;100.00;52741.91;4979549;28;20467;-69
2022/09/23 02:51:12;;;;;;;4.40;3.60;;;;;;;-140.72;100.00;52725.69;4975668;28;20471;-70
2022/09/23 02:53:39;;;;;;;5.32;4.03;;;;;;;-140.72;100.00;52760.19;4989136;28;20042;-69
2022/09/23 02:56:19;;;;;;;5.78;3.53;;;;;;;-140.72;100.00;52713.50;4989040;28;20108;-68
2022/09/23 02:58:46;;;;;;;5.93;4.10;;;;;;;-140.72;100.00;52735.81;4990106;28;20034;-71
2022/09/23 03:01:11;;;;;;;4.43;3.88;;;;;;;-140.72;100.00;52752.06;4976668;28;20033;-70
2022/09/23 03:03:54;;;;;;;6.68;4.45;;;;;;;-140.72;100.00;52711.47;4990015;28;20026;-71
2022/09/23 03:06:54;;;;;;;4.53;3.30;;;;;;;-140.72;100.00;52717.56;4989159;28;20077;-71
2022/09/23 03:09:32;;;;;;;6.15;3.65;;;;;;;-140.72;100.00;52691.19;4980316;28;20023;-68
2022/09/23 03:12:20;;;;;;;4.55;3.78;;;;;;;-140.72;100.00;52756.13;4975343;28;20106;-69
2022/09/23 03:14:52;;;;;;;3.67;3.03;;;;;;;-140.72;100.00;52705.38;4987258;28;20061;-70
2022/09/23 03:17:28;;;;;;;5.88;3.42;;;;;;;-140.72;100.00;52766.25;4993176;28;20061;-70
2022/09/23 03:19:58;;;;;;;5.32;3.65;;;;;;;-140.72;100.00;52691.19;4980744;28;20151;-68
2022/09/23 03:22:32;;;;;;;5.53;3.60;;;;;;;-140.72;100.00;52735.81;4980662;28;20027;-68
2022/09/23 03:25:02;;;;;;;6.57;3.88;;;;;;;-140.72;100.00;52676.97;4974462;28;20027;-68
2022/09/23 03:27:31;;;;;;;6.22;3.53;;;;;;;-140.72;100.00;52725.69;4988439;28;20037;-69
2022/09/23 03:29:58;;;;;;;4.22;3.00;;;;;;;-140.72;100.00;52695.25;4991095;28;20041;-69
2022/09/23 03:32:27;;;;;;;4.60;3.80;;;;;;;-140.72;100.00;52711.47;4989232;28;20133;-71
2022/09/23 03:34:55;;;;;;;7.32;4.03;;;;;;;-140.72;100.00;52727.72;4992760;28;20050;-70
2022/09/23 03:37:46;;;;;;;4.47;2.97;;;;;;;-140.72;100.00;52693.22;4991608;28;20317;-70
2022/09/23 03:40:18;;;;;;;4.70;3.15;;;;;;;-140.72;100.00;52735.81;4993176;28;20450;-70
2022/09/23 03:42:43;;;;;;;4.95;3.63;;;;;;;-140.72;100.00;52713.50;4992776;28;20045;-70
2022/09/23 03:45:17;;;;;;;4.15;2.90;;;;;;;-140.72;100.00;52727.72;4993053;28;20034;-71
2022/09/23 03:47:43;;;;;;;5.47;3.38;;;;;;;-140.72;100.00;52691.19;4993128;28;20030;-71
2022/09/23 03:50:09;;;;;;;5.47;3.38;;;;;;;-140.72;100.00;52723.66;4992465;28;20041;-70
2022/09/23 03:52:34;;;;;;;5.63;4.05;;;;;;;-140.72;100.00;52689.16;4993222;28;20086;-71
2022/09/23 03:55:00;;;;;;;5.15;3.03;;;;;;;-140.72;100.00;52715.53;4988461;28;20118;-70
2022/09/23 03:57:25;;;;;;;5.80;3.85;;;;;;;-140.72;100.00;52666.84;4984028;28;20109;-71
2022/09/23 03:59:51;;;;;;;4.43;3.45;;;;;;;-140.72;100.00;52711.47;4992711;28;20026;-70
2022/09/23 04:02:18;;;;;;;4.13;3.33;;;;;;;-140.72;100.00;52707.41;4983389;28;20169;-71
2022/09/23 04:04:44;;;;;;;4.35;2.97;;;;;;;-140.72;100.00;52721.63;4981730;28;20038;-71
2022/09/23 04:07:10;;;;;;;3.40;2.85;;;;;;;-140.72;100.00;52750.03;4993383;28;20030;-70
2022/09/23 04:09:36;;;;;;;5.28;3.90;;;;;;;-140.72;100.00;52727.72;4980081;28;20046;-72
2022/09/23 04:12:02;;;;;;;4.22;3.55;;;;;;;-140.72;100.00;52654.66;4985920;28;20030;-71
2022/09/23 04:14:27;;;;;;;4.85;3.70;;;;;;;-140.72;100.00;52737.84;4983368;28;20026;-70
2022/09/23 04:16:53;;;;;;;4.10;2.97;;;;;;;-140.72;100.00;52707.41;4990856;28;20022;-71
2022/09/23 04:19:19;;;;;;;5.82;3.83;;;;;;;-140.72;100.00;52719.59;4981274;28;20069;-70
2022/09/23 04:21:44;;;;;;;4.95;3.05;;;;;;;-140.72;100.00;52709.44;4992598;28;20023;-70
2022/09/23 04:24:10;;;;;;;5.05;3.40;;;;;;;-140.72;100.00;52691.19;4991434;28;20364;-70
2022/09/23 04:26:37;;;;;;;3.83;3.13;;;;;;;-140.72;100.00;52687.13;4992111;28;20368;-70
2022/09/23 04:29:03;;;;;;;4.13;2.95;;;;;;;-140.72;100.00;52695.25;4976040;28;20078;-70
2022/09/23 04:31:30;;;;;;;5.47;3.33;;;;;;;-140.72;100.00;52703.34;4983545;28;20042;-70
2022/09/23 04:33:56;;;;;;;7.78;4.32;;;;;;;-140.72;100.00;52691.19;4991261;28;20058;-70
2022/09/23 04:36:22;;;;;;;4.55;2.88;;;;;;;-140.72;100.00;52674.94;4992723;28;20026;-70
2022/09/23 04:38:48;;;;;;;7.60;3.70;;;;;;;-140.72;100.00;52711.47;4991818;28;20057;-70
2022/09/23 04:41:14;;;;;;;4.95;3.58;;;;;;;-140.72;100.00;52697.28;4991341;28;20039;-70
2022/09/23 04:43:41;;;;;;;6.40;3.35;;;;;;;-140.72;100.00;52691.19;4989395;28;20113;-71
2022/09/23 04:46:08;;;;;;;4.85;3.05;;;;;;;-140.72;100.00;52711.47;4982700;28;20441;-70
2022/09/23 04:48:35;;;;;;;5.07;3.53;;;;;;;-140.72;100.00;52664.81;4979946;28;20047;-70
2022/09/23 04:51:03;;;;;;;4.38;2.95;;;;;;;-140.72;100.00;52687.13;4983426;28;20069;-71
2022/09/23 04:53:29;;;;;;;4.40;3.13;;;;;;;-140.72;100.00;52679.00;4972736;28;20575;-70
2022/09/23 04:56:04;;;;;;;4.97;2.85;;;;;;;-140.72;100.00;52737.84;4980601;28;20027;-71
2022/09/23 04:58:29;;;;;;;5.70;3.92;;;;;;;-140.72;100.00;52697.28;4984937;28;20030;-71
2022/09/23 05:00:56;;;;;;;4.00;3.05;;;;;;;-140.72;100.00;52703.34;4979716;28;20475;-70
2022/09/23 05:03:22;;;;;;;3.30;2.45;;;;;;;-140.72;100.00;52683.06;4979183;28;20038;-71
2022/09/23 05:05:48;;;;;;;3.15;2.20;;;;;;;-140.72;100.00;52695.25;4975765;28;20031;-70
2022/09/23 05:08:14;;;;;;;5.68;2.88;;;;;;;-140.72;100.00;52719.59;4978302;28;20076;-71
2022/09/23 05:10:41;;;;;;;5.53;3.20;;;;;;;-140.72;100.00;52687.13;4988103;28;20030;-70
2022/09/23 05:13:07;;;;;;;6.18;2.78;;;;;;;-140.72;100.00;52691.19;4983327;28;20077;-71
2022/09/23 05:15:33;;;;;;;4.40;2.95;;;;;;;-140.72;100.00;52679.00;4980048;28;20472;-71
2022/09/23 05:17:59;;;;;;;4.45;3.42;;;;;;;-140.72;100.00;52719.59;4980687;28;20038;-71
2022/09/23 05:20:24;;;;;;;7.32;3.20;;;;;;;-140.72;100.00;52707.41;4989575;28;20037;-71
2022/09/23 05:22:54;;;;;;;3.00;2.50;;;;;;;-140.72;100.00;52717.56;4990354;28;20088;-70
2022/09/23 05:25:20;;;;;;;4.55;3.00;;;;;;;-140.72;100.00;52697.28;4983512;28;20026;-70
2022/09/23 05:27:45;;;;;;;4.70;2.78;;;;;;;-140.72;100.00;52672.91;4978031;28;20031;-70
2022/09/23 05:30:11;;;;;;;3.85;2.78;;;;;;;-140.72;100.00;52748.00;4989344;28;20467;-70
2022/09/23 05:32:36;;;;;;;4.97;3.22;;;;;;;-140.72;100.00;52666.84;4988243;28;20030;-70
2022/09/23 05:35:03;;;;;;;5.63;3.35;;;;;;;-140.72;100.00;52683.06;4985615;28;20519;-70
2022/09/23 05:37:29;;;;;;;4.57;2.85;;;;;;;-140.72;100.00;52719.59;4979402;28;20042;-71
2022/09/23 05:39:54;;;;;;;4.97;3.58;;;;;;;-140.72;100.00;52666.84;4987970;28;20030;-70
2022/09/23 05:42:20;;;;;;;4.78;3.30;;;;;;;-140.72;100.00;52705.38;4980000;28;20026;-70
2022/09/23 05:44:46;;;;;;;4.63;3.25;;;;;;;-140.72;100.00;52733.78;4983453;28;20026;-70
2022/09/23 05:47:12;;;;;;;4.40;3.40;;;;;;;-140.72;100.00;52731.75;4984373;28;20026;-70
2022/09/23 05:49:40;;;;;;;5.22;2.55;;;;;;;-140.72;100.00;52707.41;4982208;28;20470;-71
2022/09/23 05:52:06;;;;;;;4.72;2.95;;;;;;;-140.72;100.00;52689.16;4982249;28;20109;-71
2022/09/23 05:54:34;;;;;;;5.80;3.60;;;;;;;-140.72;100.00;52693.22;4986601;28;20040;-71
2022/09/23 05:56:59;;;;;;;4.80;3.53;;;;;;;-140.72;100.00;52695.25;4982735;28;20038;-71
2022/09/23 05:59:28;;;;;;;5.38;3.25;;;;;;;-140.72;100.00;52703.34;4979498;28;20030;-72
2022/09/23 06:01:54;;;;;;;6.13;3.67;;;;;;;-140.72;100.00;52707.41;4982991;28;20022;-69
2022/09/23 06:04:19;;;;;;;4.80;3.50;;;;;;;-140.72;100.00;52672.91;4976469;28;20042;-70
2022/09/23 06:06:45;;;;;;;7.57;3.45;;;;;;;-140.72;100.00;52705.38;4984654;28;20352;-71
2022/09/23 06:09:13;;;;;;;5.65;3.47;;;;;;;-140.72;100.00;52707.41;4980214;28;20118;-70
2022/09/23 06:11:39;;;;;;;4.38;2.70;;;;;;;-140.72;100.00;52679.00;4980314;28;20040;-70
2022/09/23 06:14:04;;;;;;;4.45;2.80;;;;;;;-140.72;100.00;52721.63;4985860;28;20037;-70
2022/09/23 06:16:32;;;;;;;6.32;3.60;;;;;;;-140.72;100.00;52689.16;4985130;28;20039;-70
2022/09/23 06:19:04;;;;;;;5.20;3.42;;;;;;;-140.72;100.00;52674.94;4982345;28;20089;-72
2022/09/23 06:21:30;;;;;;;7.05;3.28;;;;;;;-140.72;100.00;52662.78;4985636;28;20041;-70
2022/09/23 06:23:59;;;;;;;4.95;3.45;;;;;;;-140.72;100.00;52654.66;4987331;28;20461;-71
2022/09/23 06:26:25;;;;;;;10.15;3.60;;;;;;;-140.72;100.00;52699.31;4986701;28;20440;-71
2022/09/23 06:28:50;;;;;;;4.88;3.20;;;;;;;-140.72;100.00;52681.03;4984464;28;20049;-70
2022/09/23 06:31:16;;;;;;;5.40;3.47;;;;;;;-140.72;100.00;52691.19;4986336;28;20045;-70
2022/09/23 06:33:43;;;;;;;4.15;3.63;;;;;;;-140.72;100.00;52668.84;4981876;28;20031;-70
2022/09/23 06:36:10;;;;;;;5.78;3.88;;;;;;;-140.72;100.00;52723.66;4983773;28;20451;-69
2022/09/23 06:38:39;;;;;;;6.65;3.63;;;;;;;-140.72;100.00;52662.78;4985093;28;20387;-69
2022/09/23 06:41:07;;;;;;;4.43;3.63;;;;;;;-140.72;100.00;52676.97;4982359;28;20030;-69
2022/09/23 06:43:33;;;;;;;5.28;3.65;;;;;;;-140.72;100.00;52656.69;4986222;28;20031;-70
2022/09/23 06:46:02;;;;;;;6.32;3.83;;;;;;;-140.72;100.00;52666.84;4986241;28;20046;-68
2022/09/23 06:48:28;;;;;;;7.90;3.97;;;;;;;-140.72;100.00;52638.41;4984946;28;20394;-69
2022/09/23 06:50:57;;;;;;;4.07;2.85;;;;;;;-140.72;100.00;52660.75;4980435;28;20022;-69
2022/09/23 06:53:22;;;;;;;6.88;3.75;;;;;;;-140.72;100.00;52668.84;4981239;28;20376;-69
2022/09/23 06:55:48;;;;;;;4.95;3.70;;;;;;;-140.72;100.00;52612.03;4987532;28;20049;-69
2022/09/23 06:58:14;;;;;;;9.00;4.10;;;;;;;-140.72;100.00;52656.69;4980442;28;20355;-69
2022/09/23 07:00:40;;;;;;;6.93;3.92;;;;;;;-140.72;100.00;52642.47;4981487;28;20131;-68
2022/09/23 07:03:07;;;;;;;6.55;3.30;;;;;;;-140.72;100.00;52610.00;4976084;28;20038;-68
2022/09/23 07:05:32;;;;;;;4.47;3.10;;;;;;;-140.72;100.00;52676.97;4980238;28;20066;-69
2022/09/23 07:07:58;;;;;;;3.92;2.97;;;;;;;-140.72;100.00;52644.50;4979835;28;20501;-69
2022/09/23 07:10:23;;;;;;;7.22;3.30;;;;;;;-140.72;100.00;52650.59;4982255;28;20458;-69
2022/09/23 07:12:49;;;;;;;5.30;3.20;;;;;;;-140.72;100.00;52658.72;4983656;28;20023;-69
2022/09/23 07:15:15;;;;;;;5.80;3.80;;;;;;;-140.72;100.00;52612.03;4981460;28;20022;-69
2022/09/23 07:17:41;;;;;;;3.22;2.45;;;;;;;-140.72;100.00;52614.06;4987551;28;20057;-69
2022/09/23 07:20:10;;;;;;;4.80;3.17;;;;;;;-140.72;100.00;52618.13;4987202;28;20026;-69
2022/09/23 07:22:36;;;;;;;6.70;3.35;;;;;;;-140.72;100.00;52642.47;4989375;28;20109;-68
2022/09/23 07:25:02;;;;;;;6.78;3.50;;;;;;;-140.72;100.00;52622.19;4989047;28;20117;-69
2022/09/23 07:27:28;;;;;;;7.20;3.15;;;;;;;-140.72;100.00;52597.84;4969684;28;20679;-69
2022/09/23 07:29:53;;;;;;;5.53;3.97;;;;;;;-140.72;100.00;52603.94;4987831;28;20459;-69
2022/09/23 07:32:21;;;;;;;4.97;3.40;;;;;;;-140.72;100.00;52601.91;4989218;28;20022;-69
2022/09/23 07:34:50;;;;;;;6.90;3.40;;;;;;;-140.72;100.00;52618.13;4988408;28;20091;-69
2022/09/23 07:37:16;;;;;;;4.57;3.10;;;;;;;-140.72;100.00;52607.97;4983674;28;20118;-69
2022/09/23 07:39:43;;;;;;;5.38;3.13;;;;;;;-140.72;100.00;52666.84;4989378;28;20089;-69
2022/09/23 07:42:11;;;;;;;5.03;3.63;;;;;;;-140.72;100.00;52614.06;4988004;28;20034;-69
2022/09/23 07:44:36;;;;;;;4.45;3.00;;;;;;;-140.72;100.00;52561.31;4988697;28;20038;-68
2022/09/23 07:47:02;;;;;;;5.03;3.33;;;;;;;-140.72;100.00;52551.16;4989087;28;20067;-68
2022/09/23 07:49:28;;;;;;;6.90;3.55;;;;;;;-140.72;100.00;52626.25;4982243;28;20433;-69
2022/09/23 07:51:53;;;;;;;3.97;2.63;;;;;;;-140.72;100.00;52601.91;4987944;28;20054;-68
2022/09/23 07:54:19;;;;;;;3.50;2.50;;;;;;;-140.72;100.00;52585.66;4988864;28;20053;-68
2022/09/23 07:56:46;;;;;;;7.47;3.53;;;;;;;-140.72;100.00;52581.59;4976843;28;20033;-68
2022/09/23 07:59:17;;;;;;;4.28;2.78;;;;;;;-140.72;100.00;52573.50;4990013;28;20109;-68
2022/09/23 08:01:45;;;;;;;5.82;2.75;;;;;;;-140.72;100.00;52573.50;4978988;28;20038;-68
2022/09/23 08:04:16;;;;;;;4.65;3.30;;;;;;;-140.72;100.00;52593.78;4988610;28;20022;-68
2022/09/23 08:06:48;;;;;;;4.32;2.80;;;;;;;-140.72;100.00;52583.63;4989881;28;20101;-69
2022/09/23 08:09:15;;;;;;;7.93;3.67;;;;;;;-140.72;100.00;52569.44;4984644;28;20043;-68
2022/09/23 08:11:41;;;;;;;4.80;2.83;;;;;;;-140.72;100.00;52571.47;4988166;28;20113;-68
2022/09/23 08:14:12;;;;;;;4.35;2.88;;;;;;;-140.72;100.00;52636.38;4988720;28;20463;-68
2022/09/23 08:16:38;;;;;;;5.30;3.25;;;;;;;-140.72;100.00;52567.41;4976548;28;20180;-68
2022/09/23 08:19:04;;;;;;;4.82;2.40;;;;;;;-140.72;100.00;52547.09;4972981;28;20053;-68
2022/09/23 08:21:30;;;;;;;7.20;3.58;;;;;;;-140.72;100.00;52553.19;4983864;28;20068;-69
2022/09/23 08:23:56;;;;;;;4.13;3.22;;;;;;;-140.72;100.00;52567.41;4963893;28;20441;-69
2022/09/23 08:26:21;;;;;;;5.15;2.95;;;;;;;-140.72;100.00;52547.09;4973588;28;20296;-69
2022/09/23 08:28:47;;;;;;;5.70;3.45;;;;;;;-140.72;100.00;52520.72;4983994;28;20031;-69
2022/09/23 08:31:13;;;;;;;5.45;2.95;;;;;;;-140.72;100.00;52512.59;4987692;28;20038;-68
2022/09/23 08:33:39;;;;;;;4.30;2.92;;;;;;;-140.72;100.00;52565.38;4988434;28;20035;-68
2022/09/23 08:36:06;;;;;;;5.28;2.72;;;;;;;-140.72;100.00;52539.00;4991022;28;20061;-68
2022/09/23 08:38:32;;;;;;;4.88;2.90;;;;;;;-140.72;100.00;52545.06;4989334;28;20022;-68
2022/09/23 08:41:14;;;;;;;8.52;3.20;;;;;;;-140.72;100.00;52526.81;4990528;28;20037;-68
2022/09/23 08:43:46;;;;;;;5.35;2.65;;;;;;;-140.72;100.00;52549.13;4990148;28;20026;-68
2022/09/23 08:46:20;;;;;;;4.18;2.63;;;;;;;-140.72;100.00;52524.78;4990557;28;20553;-68
2022/09/23 08:48:47;;;;;;;4.47;2.55;;;;;;;-140.72;100.00;52528.84;4986101;28;20034;-68
2022/09/23 08:51:34;;;;;;;3.22;2.30;;;;;;;-140.72;100.00;52553.19;4993114;28;20147;-68
2022/09/23 08:54:00;;;;;;;3.40;2.33;;;;;;;-140.72;100.00;52508.56;4992585;28;20108;-68
2022/09/23 08:56:27;;;;;;;3.22;2.28;;;;;;;-140.72;100.00;52518.69;4991352;28;20150;-68
2022/09/23 08:59:12;;;;;;;4.82;2.42;;;;;;;-140.72;100.00;52502.47;4989937;28;20046;-68
2022/09/23 09:02:12;;;;;;;4.80;2.63;;;;;;;-140.72;100.00;52532.91;4990707;28;20027;-68
2022/09/23 09:04:43;;;;;;;3.97;2.20;;;;;;;-140.72;100.00;52549.13;4978262;28;20046;-68
2022/09/23 09:07:08;;;;;;;4.00;2.70;;;;;;;-140.72;93.38;52518.69;4986702;28;20030;-68
2022/09/23 09:09:46;;;;;;;4.25;2.65;;;;;;;-140.72;99.33;52524.78;4983461;28;20402;-67
2022/09/23 09:12:17;;;;;;;3.72;2.33;;;;;;;-140.72;95.47;52494.34;4986897;28;20042;-68
2022/09/23 09:14:49;;;;;;;4.10;2.42;;;;;;;-140.72;84.67;52506.53;4987952;28;20647;-68
2022/09/23 09:17:37;;;;;;;3.70;2.00;;;;;;;-140.72;75.36;52504.50;4984070;28;20058;-67
2022/09/23 09:20:05;;;;;;;5.75;2.58;;;;;;;-140.72;72.77;52520.72;4981437;28;20545;-68
2022/09/23 09:22:58;;;;;;;6.95;2.13;;;;;;;-140.72;65.12;52532.91;4983993;28;20034;-68
2022/09/23 09:25:31;;;;;;;3.25;2.03;;;;;;;-140.72;49.19;52472.03;4981174;28;20078;-69
2022/09/23 09:27:58;;;;;;;6.43;2.00;;;;;;;-140.72;55.06;52508.56;4985602;28;20046;-68
2022/09/23 09:30:24;;;;;;;4.00;2.22;;;;;;;-140.72;59.38;52478.13;4987541;28;20053;-68
2022/09/23 09:33:04;;;;;;;3.72;2.42;;;;;;;-140.72;41.22;52496.38;4989664;28;20022;-69
2022/09/23 09:35:39;;;;;;;;;;;;;;;-140.72;32.14;52459.84;4986410;28;20045;-69
2022/09/23 09:38:04;;;;;;;3.92;2.00;;;;;;;-140.72;38.24;52488.25;4987735;28;19914;-69
2022/09/23 09:40:31;;;;;;;4.38;2.17;;;;;;;-140.72;31.76;52455.78;4985906;28;20850;-68
2022/09/23 09:42:56;;;;;;;2.75;1.92;;;;;;;-140.72;34.02;52482.16;4987133;28;20030;-69
2022/09/23 09:45:33;;;;;;;3.08;1.88;;;;;;;-140.72;19.97;52500.44;4984828;28;20035;-68
2022/09/23 09:48:08;;;;;;;1.75;1.08;;;;;;;-140.72;15.77;52439.56;4979308;28;20043;-69
2022/09/23 09:50:42;;;;;;;3.00;1.60;;;;;;;-140.72;3.96;52449.72;4989635;28;20116;-68
2022/09/23 09:53:30;;;;;;;3.42;2.10;;;;;;;-140.72;0.00;52453.75;4987881;28;20101;-68
2022/09/23 09:56:11;;;;;;;2.80;1.63;;;;;;;-140.72;1.33;52490.28;4981036;28;20372;-68
2022/09/23 09:58:46;;;;;;;5.10;2.50;;;;;;;-140.72;0.00;52437.53;4990887;28;20033;-68
2022/09/23 10:01:22;;;;;;;3.22;1.83;;;;;;;-140.72;4.87;52486.22;4991749;28;20084;-69
2022/09/23 10:03:49;;;;;;;2.83;2.08;;;;;;;-140.72;0.00;52431.44;4990479;28;20172;-69
2022/09/23 10:06:25;;;;;;;4.20;2.10;;;;;;;-140.72;0.00;52449.72;4989469;28;20030;-69
2022/09/23 10:09:00;;;;;;;4.13;2.00;;;;;;;-140.72;0.00;52488.25;4979806;28;20035;-69
2022/09/23 10:11:26;;;;;;;4.28;2.55;;;;;;;-140.72;0.00;52463.91;4991032;28;20050;-69
2022/09/23 10:14:25;;;;;;;5.88;2.15;;;;;;;-140.72;0.00;52447.69;4992052;28;20030;-69
2022/09/23 10:17:04;;;;;;;2.55;1.92;;;;;;;-140.72;0.00;52490.28;4947175;28;20056;-69
2022/09/23 10:19:30;;;;;;;6.25;2.28;;;;;;;-140.72;0.00;52508.56;4980308;28;20387;-69
2022/09/23 10:21:59;;;;;;;2.22;1.60;;;;;;;-140.72;0.00;52467.97;4990441;28;20034;-69
2022/09/23 10:24:31;;;;;;;2.50;1.85;;;;;;;-140.72;0.00;52486.22;4987844;28;20033;-70
2022/09/23 10:27:06;;;;;;;5.40;2.30;;;;;;;-140.72;0.00;52480.16;4981072;28;20105;-69
2022/09/23 10:29:47;;;;;;;6.40;2.72;;;;;;;-140.72;0.00;52474.06;4988010;28;20101;-69
2022/09/23 10:32:38;;;;;;;3.33;2.00;;;;;;;-140.72;0.00;52453.75;4972533;28;20042;-69
2022/09/23 10:35:07;;;;;;;2.63;1.73;;;;;;;-140.72;0.00;52465.94;4980714;28;20140;-69
2022/09/23 10:37:45;;;;;;;3.43;2.27;;;;;;;-140.72;0.00;52457.81;4987626;28;20081;-69
2022/09/23 10:49:19;;;;;;;3.70;1.93;;;;;;;-140.72;0.00;52403.03;4990187;28;20084;-69
2022/09/23 10:51:59;;;;;;;2.63;1.65;;;;;;;-140.72;0.00;52463.91;4986037;28;20270;-69
2022/09/23 10:54:35;;;;;;;3.65;2.10;;;;;;;-140.72;0.00;52451.72;4986968;28;20034;-69
2022/09/23 10:57:39;;;;;;;2.78;1.98;;;;;;;-140.72;0.00;52457.81;4990411;28;20142;-68
2022/09/23 11:00:07;;;;;;;3.47;2.30;;;;;;;-140.72;0.00;52439.56;4987116;28;20029;-68
2022/09/23 11:02:48;;;;;;;2.67;1.92;;;;;;;-140.72;0.00;52392.88;4985627;28;20026;-68
2022/09/23 11:05:24;;;;;;;4.05;1.52;;;;;;;-140.72;0.00;52445.66;4979442;28;20034;-68
2022/09/23 11:07:49;;;;;;;2.67;1.60;;;;;;;-140.72;0.00;52443.63;4983199;28;20019;-68
2022/09/23 11:10:43;;;;;;;3.10;1.67;;;;;;;-140.72;0.00;52398.97;4989945;28;20027;-69
2022/09/23 11:13:27;;;;;;;2.58;1.75;;;;;;;-140.72;0.00;52421.28;4986197;28;20030;-69
2022/09/23 11:15:53;;;;;;;4.13;1.88;;;;;;;-140.72;0.00;52437.53;4989940;28;20196;-69
2022/09/23 11:18:33;;;;;;;2.78;1.42;;;;;;;-140.72;0.00;52403.03;4990333;28;20039;-69
2022/09/23 11:21:24;;;;;;;3.35;1.73;;;;;;;-140.72;0.00;52455.78;4989552;28;20030;-68
2022/09/23 11:24:23;;;;;;;2.58;1.65;;;;;;;-140.72;0.00;52461.88;4981352;28;20073;-68
2022/09/23 11:27:02;;;;;;;2.45;1.55;;;;;;;-140.72;0.00;52437.53;4974651;28;20038;-70
2022/09/23 11:29:54;;;;;;;1.92;1.27;;;;;;;-140.72;0.00;52419.28;4985960;28;20123;-70
2022/09/23 11:32:47;;;;;;;2.55;1.75;;;;;;;-140.72;0.00;52405.06;4984004;28;20664;-69
2022/09/23 11:35:26;;;;;;;3.75;1.65;;;;;;;-140.72;0.00;52431.44;4979188;28;20529;-68
2022/09/23 11:37:57;;;;;;;2.65;1.63;;;;;;;-140.72;0.00;52453.75;4987675;28;20018;-69
2022/09/23 11:40:29;;;;;;;5.20;2.10;;;;;;;-140.72;0.00;52386.81;4975321;28;20495;-68